sensor_id;sensor_type;location;lat;lon;timestamp;P1;durP1;ratioP1;P2;durP2;ratioP2
11524;SDS011;5819;49.648;8.330;2023-12-14T00:01:29;19.42;;;14.32;;
11524;SDS011;5819;49.648;8.330;2023-12-14T00:03:57;16.75;;;12.25;;
11524;SDS011;5819;49.648;8.330;2023-12-14T00:06:25;19.30;;;11.60;;
11524;SDS011;5819;49.648;8.330;2023-12-14T00:08:53;15.00;;;10.40;;
11524;SDS011;5819;49.648;8.330;2023-12-14T00:11:21;11.10;;;9.25;;
11524;SDS011;5819;49.648;8.330;2023-12-14T00:13:49;12.45;;;8.73;;
11524;SDS011;5819;49.648;8.330;2023-12-14T00:16:18;9.82;;;7.63;;
11524;SDS011;5819;49.648;8.330;2023-12-14T00:18:45;13.98;;;8.73;;
11524;SDS011;5819;49.648;8.330;2023-12-14T00:21:14;9.43;;;8.23;;
11524;SDS011;5819;49.648;8.330;2023-12-14T00:23:42;13.13;;;9.55;;
11524;SDS011;5819;49.648;8.330;2023-12-14T00:26:10;15.07;;;9.85;;
11524;SDS011;5819;49.648;8.330;2023-12-14T00:28:38;14.30;;;9.50;;
11524;SDS011;5819;49.648;8.330;2023-12-14T00:31:06;14.57;;;10.82;;
11524;SDS011;5819;49.648;8.330;2023-12-14T00:33:36;14.40;;;10.70;;
11524;SDS011;5819;49.648;8.330;2023-12-14T00:36:04;14.48;;;11.07;;
11524;SDS011;5819;49.648;8.330;2023-12-14T00:38:32;14.27;;;11.60;;
11524;SDS011;5819;49.648;8.330;2023-12-14T00:41:00;14.05;;;11.02;;
11524;SDS011;5819;49.648;8.330;2023-12-14T00:43:28;16.23;;;10.80;;
11524;SDS011;5819;49.648;8.330;2023-12-14T00:45:56;14.32;;;10.73;;
11524;SDS011;5819;49.648;8.330;2023-12-14T00:48:24;12.85;;;9.77;;
11524;SDS011;5819;49.648;8.330;2023-12-14T00:50:53;17.33;;;10.20;;
11524;SDS011;5819;49.648;8.330;2023-12-14T00:53:21;14.45;;;10.50;;
11524;SDS011;5819;49.648;8.330;2023-12-14T00:55:49;14.48;;;10.05;;
11524;SDS011;5819;49.648;8.330;2023-12-14T00:58:17;14.50;;;10.63;;
11524;SDS011;5819;49.648;8.330;2023-12-14T01:00:44;10.20;;;8.95;;
11524;SDS011;5819;49.648;8.330;2023-12-14T01:03:13;16.17;;;9.60;;
11524;SDS011;5819;49.648;8.330;2023-12-14T01:05:41;14.77;;;10.38;;
11524;SDS011;5819;49.648;8.330;2023-12-14T01:11:20;13.23;;;9.77;;
11524;SDS011;5819;49.648;8.330;2023-12-14T01:13:48;15.77;;;10.32;;
11524;SDS011;5819;49.648;8.330;2023-12-14T01:16:16;13.93;;;10.52;;
11524;SDS011;5819;49.648;8.330;2023-12-14T01:18:43;14.35;;;10.18;;
11524;SDS011;5819;49.648;8.330;2023-12-14T01:21:12;15.30;;;10.57;;
11524;SDS011;5819;49.648;8.330;2023-12-14T01:23:40;14.45;;;10.80;;
11524;SDS011;5819;49.648;8.330;2023-12-14T01:26:07;14.50;;;11.38;;
11524;SDS011;5819;49.648;8.330;2023-12-14T01:28:37;14.02;;;10.13;;
11524;SDS011;5819;49.648;8.330;2023-12-14T01:31:05;13.80;;;10.52;;
11524;SDS011;5819;49.648;8.330;2023-12-14T01:33:33;16.00;;;10.95;;
11524;SDS011;5819;49.648;8.330;2023-12-14T01:36:00;15.77;;;11.30;;
11524;SDS011;5819;49.648;8.330;2023-12-14T01:38:28;18.95;;;11.90;;
11524;SDS011;5819;49.648;8.330;2023-12-14T01:40:56;14.40;;;11.75;;
11524;SDS011;5819;49.648;8.330;2023-12-14T01:43:25;13.68;;;11.85;;
11524;SDS011;5819;49.648;8.330;2023-12-14T01:45:55;14.65;;;11.32;;
11524;SDS011;5819;49.648;8.330;2023-12-14T01:48:22;15.73;;;11.63;;
11524;SDS011;5819;49.648;8.330;2023-12-14T01:50:50;14.38;;;11.38;;
11524;SDS011;5819;49.648;8.330;2023-12-14T01:53:19;13.57;;;11.18;;
11524;SDS011;5819;49.648;8.330;2023-12-14T01:55:46;15.43;;;11.35;;
11524;SDS011;5819;49.648;8.330;2023-12-14T01:58:14;16.60;;;11.18;;
11524;SDS011;5819;49.648;8.330;2023-12-14T02:00:43;12.30;;;10.95;;
11524;SDS011;5819;49.648;8.330;2023-12-14T02:03:18;13.27;;;11.40;;
11524;SDS011;5819;49.648;8.330;2023-12-14T02:05:46;15.95;;;11.32;;
11524;SDS011;5819;49.648;8.330;2023-12-14T02:08:14;14.88;;;11.75;;
11524;SDS011;5819;49.648;8.330;2023-12-14T02:10:42;14.75;;;11.25;;
11524;SDS011;5819;49.648;8.330;2023-12-14T02:13:10;13.45;;;11.35;;
11524;SDS011;5819;49.648;8.330;2023-12-14T02:15:37;14.02;;;11.00;;
11524;SDS011;5819;49.648;8.330;2023-12-14T02:18:05;16.10;;;10.90;;
11524;SDS011;5819;49.648;8.330;2023-12-14T02:20:35;17.67;;;10.57;;
11524;SDS011;5819;49.648;8.330;2023-12-14T02:23:04;12.70;;;9.38;;
11524;SDS011;5819;49.648;8.330;2023-12-14T02:25:32;12.18;;;7.55;;
11524;SDS011;5819;49.648;8.330;2023-12-14T02:28:00;11.07;;;6.40;;
11524;SDS011;5819;49.648;8.330;2023-12-14T02:30:28;8.52;;;5.75;;
11524;SDS011;5819;49.648;8.330;2023-12-14T02:32:56;10.27;;;6.05;;
11524;SDS011;5819;49.648;8.330;2023-12-14T02:35:24;7.50;;;5.75;;
11524;SDS011;5819;49.648;8.330;2023-12-14T02:37:52;7.78;;;4.93;;
11524;SDS011;5819;49.648;8.330;2023-12-14T02:40:21;8.55;;;5.10;;
11524;SDS011;5819;49.648;8.330;2023-12-14T02:42:49;7.18;;;4.38;;
11524;SDS011;5819;49.648;8.330;2023-12-14T02:45:17;6.00;;;4.18;;
11524;SDS011;5819;49.648;8.330;2023-12-14T02:47:47;7.97;;;4.05;;
11524;SDS011;5819;49.648;8.330;2023-12-14T02:50:16;6.90;;;3.92;;
11524;SDS011;5819;49.648;8.330;2023-12-14T02:52:43;7.15;;;4.40;;
11524;SDS011;5819;49.648;8.330;2023-12-14T02:55:11;6.43;;;4.53;;
11524;SDS011;5819;49.648;8.330;2023-12-14T02:57:40;8.18;;;4.82;;
11524;SDS011;5819;49.648;8.330;2023-12-14T03:00:08;9.90;;;4.18;;
11524;SDS011;5819;49.648;8.330;2023-12-14T03:02:37;6.80;;;4.13;;
11524;SDS011;5819;49.648;8.330;2023-12-14T03:05:05;7.93;;;4.35;;
11524;SDS011;5819;49.648;8.330;2023-12-14T03:07:36;9.13;;;4.65;;
11524;SDS011;5819;49.648;8.330;2023-12-14T03:10:04;6.32;;;4.38;;
11524;SDS011;5819;49.648;8.330;2023-12-14T03:12:32;12.30;;;4.70;;
11524;SDS011;5819;49.648;8.330;2023-12-14T03:15:02;9.43;;;4.93;;
11524;SDS011;5819;49.648;8.330;2023-12-14T03:17:30;10.63;;;5.65;;
11524;SDS011;5819;49.648;8.330;2023-12-14T03:19:58;9.48;;;6.13;;
11524;SDS011;5819;49.648;8.330;2023-12-14T03:22:26;9.95;;;6.05;;
11524;SDS011;5819;49.648;8.330;2023-12-14T03:24:54;9.18;;;6.38;;
11524;SDS011;5819;49.648;8.330;2023-12-14T03:27:21;12.10;;;6.85;;
11524;SDS011;5819;49.648;8.330;2023-12-14T03:29:51;9.55;;;6.80;;
11524;SDS011;5819;49.648;8.330;2023-12-14T03:32:20;9.98;;;6.97;;
11524;SDS011;5819;49.648;8.330;2023-12-14T03:34:48;10.90;;;6.28;;
11524;SDS011;5819;49.648;8.330;2023-12-14T03:37:16;9.80;;;6.53;;
11524;SDS011;5819;49.648;8.330;2023-12-14T03:39:44;9.18;;;6.65;;
11524;SDS011;5819;49.648;8.330;2023-12-14T03:42:11;11.77;;;6.28;;
11524;SDS011;5819;49.648;8.330;2023-12-14T03:44:39;11.15;;;6.65;;
11524;SDS011;5819;49.648;8.330;2023-12-14T03:47:07;9.95;;;6.68;;
11524;SDS011;5819;49.648;8.330;2023-12-14T03:49:37;11.55;;;6.43;;
11524;SDS011;5819;49.648;8.330;2023-12-14T03:52:05;8.25;;;6.35;;
11524;SDS011;5819;49.648;8.330;2023-12-14T03:54:33;10.85;;;6.95;;
11524;SDS011;5819;49.648;8.330;2023-12-14T03:57:01;9.48;;;6.60;;
11524;SDS011;5819;49.648;8.330;2023-12-14T03:59:29;8.68;;;6.40;;
11524;SDS011;5819;49.648;8.330;2023-12-14T04:01:58;8.45;;;6.43;;
11524;SDS011;5819;49.648;8.330;2023-12-14T04:04:26;7.50;;;6.10;;
11524;SDS011;5819;49.648;8.330;2023-12-14T04:06:55;8.02;;;5.60;;
11524;SDS011;5819;49.648;8.330;2023-12-14T04:09:23;10.60;;;6.40;;
11524;SDS011;5819;49.648;8.330;2023-12-14T04:11:52;8.18;;;5.90;;
11524;SDS011;5819;49.648;8.330;2023-12-14T04:14:19;9.88;;;6.10;;
11524;SDS011;5819;49.648;8.330;2023-12-14T04:16:47;8.80;;;6.00;;
11524;SDS011;5819;49.648;8.330;2023-12-14T04:19:15;8.90;;;6.47;;
11524;SDS011;5819;49.648;8.330;2023-12-14T04:21:43;10.70;;;6.03;;
11524;SDS011;5819;49.648;8.330;2023-12-14T04:24:12;9.52;;;6.28;;
11524;SDS011;5819;49.648;8.330;2023-12-14T04:26:40;10.18;;;6.10;;
11524;SDS011;5819;49.648;8.330;2023-12-14T04:29:08;8.40;;;5.95;;
11524;SDS011;5819;49.648;8.330;2023-12-14T04:31:36;9.13;;;6.72;;
11524;SDS011;5819;49.648;8.330;2023-12-14T04:34:04;11.63;;;6.68;;
11524;SDS011;5819;49.648;8.330;2023-12-14T04:36:38;8.85;;;6.43;;
11524;SDS011;5819;49.648;8.330;2023-12-14T04:39:06;9.93;;;5.85;;
11524;SDS011;5819;49.648;8.330;2023-12-14T04:41:35;8.85;;;5.70;;
11524;SDS011;5819;49.648;8.330;2023-12-14T04:44:03;9.02;;;6.55;;
11524;SDS011;5819;49.648;8.330;2023-12-14T04:46:31;17.17;;;9.85;;
11524;SDS011;5819;49.648;8.330;2023-12-14T04:48:59;10.88;;;7.80;;
11524;SDS011;5819;49.648;8.330;2023-12-14T04:51:27;12.70;;;7.13;;
11524;SDS011;5819;49.648;8.330;2023-12-14T04:53:56;11.27;;;6.88;;
11524;SDS011;5819;49.648;8.330;2023-12-14T04:56:23;13.02;;;6.93;;
11524;SDS011;5819;49.648;8.330;2023-12-14T04:58:53;11.15;;;6.85;;
11524;SDS011;5819;49.648;8.330;2023-12-14T05:01:20;10.85;;;7.03;;
11524;SDS011;5819;49.648;8.330;2023-12-14T05:03:48;9.38;;;6.35;;
11524;SDS011;5819;49.648;8.330;2023-12-14T05:06:16;8.40;;;6.47;;
11524;SDS011;5819;49.648;8.330;2023-12-14T05:08:44;10.00;;;6.97;;
11524;SDS011;5819;49.648;8.330;2023-12-14T05:11:13;11.43;;;6.10;;
11524;SDS011;5819;49.648;8.330;2023-12-14T05:13:41;12.73;;;6.93;;
11524;SDS011;5819;49.648;8.330;2023-12-14T05:16:13;8.98;;;5.93;;
11524;SDS011;5819;49.648;8.330;2023-12-14T05:18:41;9.13;;;5.05;;
11524;SDS011;5819;49.648;8.330;2023-12-14T05:21:09;10.68;;;5.75;;
11524;SDS011;5819;49.648;8.330;2023-12-14T05:23:37;9.63;;;5.88;;
11524;SDS011;5819;49.648;8.330;2023-12-14T05:26:05;9.43;;;5.25;;
11524;SDS011;5819;49.648;8.330;2023-12-14T05:28:33;7.65;;;5.88;;
11524;SDS011;5819;49.648;8.330;2023-12-14T05:31:01;8.43;;;5.95;;
11524;SDS011;5819;49.648;8.330;2023-12-14T05:33:31;8.15;;;6.53;;
11524;SDS011;5819;49.648;8.330;2023-12-14T05:36:04;10.40;;;6.07;;
11524;SDS011;5819;49.648;8.330;2023-12-14T05:38:37;9.63;;;6.43;;
11524;SDS011;5819;49.648;8.330;2023-12-14T05:41:06;8.90;;;6.13;;
11524;SDS011;5819;49.648;8.330;2023-12-14T05:43:34;8.93;;;5.50;;
11524;SDS011;5819;49.648;8.330;2023-12-14T05:46:02;8.95;;;5.97;;
11524;SDS011;5819;49.648;8.330;2023-12-14T05:48:32;8.25;;;5.80;;
11524;SDS011;5819;49.648;8.330;2023-12-14T05:51:00;8.52;;;6.30;;
11524;SDS011;5819;49.648;8.330;2023-12-14T05:53:28;9.02;;;5.90;;
11524;SDS011;5819;49.648;8.330;2023-12-14T05:55:56;10.85;;;7.07;;
11524;SDS011;5819;49.648;8.330;2023-12-14T05:58:26;8.43;;;6.10;;
11524;SDS011;5819;49.648;8.330;2023-12-14T06:00:54;8.75;;;6.68;;
11524;SDS011;5819;49.648;8.330;2023-12-14T06:03:23;7.45;;;6.28;;
11524;SDS011;5819;49.648;8.330;2023-12-14T06:05:52;9.35;;;6.18;;
11524;SDS011;5819;49.648;8.330;2023-12-14T06:08:20;6.65;;;5.93;;
11524;SDS011;5819;49.648;8.330;2023-12-14T06:10:48;8.23;;;6.32;;
11524;SDS011;5819;49.648;8.330;2023-12-14T06:13:15;8.57;;;6.25;;
11524;SDS011;5819;49.648;8.330;2023-12-14T06:15:43;9.25;;;5.40;;
11524;SDS011;5819;49.648;8.330;2023-12-14T06:18:11;8.95;;;5.72;;
11524;SDS011;5819;49.648;8.330;2023-12-14T06:20:39;8.13;;;5.18;;
11524;SDS011;5819;49.648;8.330;2023-12-14T06:23:09;10.93;;;5.70;;
11524;SDS011;5819;49.648;8.330;2023-12-14T06:25:37;9.02;;;6.32;;
11524;SDS011;5819;49.648;8.330;2023-12-14T06:28:05;11.38;;;6.82;;
11524;SDS011;5819;49.648;8.330;2023-12-14T06:30:33;9.93;;;7.07;;
11524;SDS011;5819;49.648;8.330;2023-12-14T06:33:01;10.13;;;6.65;;
11524;SDS011;5819;49.648;8.330;2023-12-14T06:35:29;7.70;;;6.25;;
11524;SDS011;5819;49.648;8.330;2023-12-14T06:37:57;7.53;;;5.60;;
11524;SDS011;5819;49.648;8.330;2023-12-14T06:40:26;7.70;;;4.90;;
11524;SDS011;5819;49.648;8.330;2023-12-14T06:42:54;6.80;;;4.45;;
11524;SDS011;5819;49.648;8.330;2023-12-14T06:45:22;8.13;;;4.68;;
11524;SDS011;5819;49.648;8.330;2023-12-14T06:47:49;8.90;;;4.80;;
11524;SDS011;5819;49.648;8.330;2023-12-14T06:50:17;6.40;;;4.60;;
11524;SDS011;5819;49.648;8.330;2023-12-14T06:52:45;7.07;;;4.95;;
11524;SDS011;5819;49.648;8.330;2023-12-14T06:55:13;7.40;;;4.45;;
11524;SDS011;5819;49.648;8.330;2023-12-14T06:57:43;8.15;;;5.10;;
11524;SDS011;5819;49.648;8.330;2023-12-14T07:00:13;7.68;;;5.38;;
11524;SDS011;5819;49.648;8.330;2023-12-14T07:02:41;8.65;;;5.80;;
11524;SDS011;5819;49.648;8.330;2023-12-14T07:05:09;7.78;;;6.50;;
11524;SDS011;5819;49.648;8.330;2023-12-14T07:07:37;9.25;;;6.15;;
11524;SDS011;5819;49.648;8.330;2023-12-14T07:10:06;8.68;;;6.00;;
11524;SDS011;5819;49.648;8.330;2023-12-14T07:12:36;9.38;;;6.15;;
11524;SDS011;5819;49.648;8.330;2023-12-14T07:15:07;6.32;;;5.10;;
11524;SDS011;5819;49.648;8.330;2023-12-14T07:17:35;8.77;;;6.30;;
11524;SDS011;5819;49.648;8.330;2023-12-14T07:20:04;11.40;;;6.15;;
11524;SDS011;5819;49.648;8.330;2023-12-14T07:22:33;9.90;;;6.28;;
11524;SDS011;5819;49.648;8.330;2023-12-14T07:25:02;9.18;;;5.40;;
11524;SDS011;5819;49.648;8.330;2023-12-14T07:27:30;8.45;;;5.70;;
11524;SDS011;5819;49.648;8.330;2023-12-14T07:29:58;8.25;;;5.25;;
11524;SDS011;5819;49.648;8.330;2023-12-14T07:32:27;8.75;;;4.85;;
11524;SDS011;5819;49.648;8.330;2023-12-14T07:34:55;7.10;;;4.78;;
11524;SDS011;5819;49.648;8.330;2023-12-14T07:37:23;12.65;;;5.22;;
11524;SDS011;5819;49.648;8.330;2023-12-14T07:39:52;7.63;;;4.07;;
11524;SDS011;5819;49.648;8.330;2023-12-14T07:42:19;6.05;;;4.15;;
11524;SDS011;5819;49.648;8.330;2023-12-14T07:44:47;6.15;;;3.70;;
11524;SDS011;5819;49.648;8.330;2023-12-14T07:47:15;8.30;;;4.10;;
11524;SDS011;5819;49.648;8.330;2023-12-14T07:49:44;8.70;;;4.63;;
11524;SDS011;5819;49.648;8.330;2023-12-14T07:52:12;7.28;;;4.22;;
11524;SDS011;5819;49.648;8.330;2023-12-14T07:54:41;7.55;;;4.15;;
11524;SDS011;5819;49.648;8.330;2023-12-14T07:57:08;4.55;;;3.67;;
11524;SDS011;5819;49.648;8.330;2023-12-14T07:59:36;7.10;;;4.10;;
11524;SDS011;5819;49.648;8.330;2023-12-14T08:02:04;6.88;;;4.10;;
11524;SDS011;5819;49.648;8.330;2023-12-14T08:04:33;6.20;;;3.88;;
11524;SDS011;5819;49.648;8.330;2023-12-14T08:07:03;8.02;;;4.18;;
11524;SDS011;5819;49.648;8.330;2023-12-14T08:09:31;5.43;;;4.10;;
11524;SDS011;5819;49.648;8.330;2023-12-14T08:11:59;6.72;;;4.53;;
11524;SDS011;5819;49.648;8.330;2023-12-14T08:14:27;8.15;;;5.28;;
11524;SDS011;5819;49.648;8.330;2023-12-14T08:16:58;7.50;;;4.57;;
11524;SDS011;5819;49.648;8.330;2023-12-14T08:19:27;10.00;;;5.05;;
11524;SDS011;5819;49.648;8.330;2023-12-14T08:21:56;7.20;;;5.00;;
11524;SDS011;5819;49.648;8.330;2023-12-14T08:24:26;9.20;;;4.97;;
11524;SDS011;5819;49.648;8.330;2023-12-14T08:26:55;6.15;;;4.03;;
11524;SDS011;5819;49.648;8.330;2023-12-14T08:29:23;8.43;;;5.38;;
11524;SDS011;5819;49.648;8.330;2023-12-14T08:31:52;7.68;;;4.90;;
11524;SDS011;5819;49.648;8.330;2023-12-14T08:34:19;9.68;;;4.53;;
11524;SDS011;5819;49.648;8.330;2023-12-14T08:36:49;7.88;;;4.90;;
11524;SDS011;5819;49.648;8.330;2023-12-14T08:39:17;8.60;;;4.93;;
11524;SDS011;5819;49.648;8.330;2023-12-14T08:41:47;6.68;;;4.63;;
11524;SDS011;5819;49.648;8.330;2023-12-14T08:44:15;10.00;;;5.60;;
11524;SDS011;5819;49.648;8.330;2023-12-14T08:46:44;9.85;;;5.88;;
11524;SDS011;5819;49.648;8.330;2023-12-14T08:49:13;9.27;;;6.13;;
11524;SDS011;5819;49.648;8.330;2023-12-14T08:51:41;8.48;;;5.80;;
11524;SDS011;5819;49.648;8.330;2023-12-14T08:54:10;8.98;;;6.47;;
11524;SDS011;5819;49.648;8.330;2023-12-14T08:56:38;7.25;;;6.00;;
11524;SDS011;5819;49.648;8.330;2023-12-14T08:59:08;9.32;;;6.60;;
11524;SDS011;5819;49.648;8.330;2023-12-14T09:01:36;10.43;;;7.22;;
11524;SDS011;5819;49.648;8.330;2023-12-14T09:04:04;9.15;;;6.65;;
11524;SDS011;5819;49.648;8.330;2023-12-14T09:06:32;8.20;;;6.65;;
11524;SDS011;5819;49.648;8.330;2023-12-14T09:09:01;8.57;;;7.45;;
11524;SDS011;5819;49.648;8.330;2023-12-14T09:11:30;10.27;;;7.72;;
11524;SDS011;5819;49.648;8.330;2023-12-14T09:13:59;11.05;;;8.55;;
11524;SDS011;5819;49.648;8.330;2023-12-14T09:16:29;12.68;;;9.10;;
11524;SDS011;5819;49.648;8.330;2023-12-14T09:18:57;12.05;;;9.10;;
11524;SDS011;5819;49.648;8.330;2023-12-14T09:21:25;13.63;;;8.25;;
11524;SDS011;5819;49.648;8.330;2023-12-14T09:24:09;11.27;;;8.68;;
11524;SDS011;5819;49.648;8.330;2023-12-14T09:26:39;10.48;;;8.20;;
11524;SDS011;5819;49.648;8.330;2023-12-14T09:29:07;12.13;;;8.68;;
11524;SDS011;5819;49.648;8.330;2023-12-14T09:31:37;10.48;;;8.60;;
11524;SDS011;5819;49.648;8.330;2023-12-14T09:34:09;11.98;;;8.52;;
11524;SDS011;5819;49.648;8.330;2023-12-14T09:36:38;10.90;;;7.93;;
11524;SDS011;5819;49.648;8.330;2023-12-14T09:39:07;11.40;;;8.13;;
11524;SDS011;5819;49.648;8.330;2023-12-14T09:41:38;11.88;;;8.45;;
11524;SDS011;5819;49.648;8.330;2023-12-14T09:44:07;13.82;;;8.05;;
11524;SDS011;5819;49.648;8.330;2023-12-14T09:46:37;11.57;;;7.93;;
11524;SDS011;5819;49.648;8.330;2023-12-14T09:49:11;9.57;;;7.93;;
11524;SDS011;5819;49.648;8.330;2023-12-14T09:51:40;9.95;;;8.05;;
11524;SDS011;5819;49.648;8.330;2023-12-14T09:54:08;9.90;;;8.13;;
11524;SDS011;5819;49.648;8.330;2023-12-14T09:56:35;11.30;;;8.02;;
11524;SDS011;5819;49.648;8.330;2023-12-14T09:59:13;10.05;;;8.40;;
11524;SDS011;5819;49.648;8.330;2023-12-14T10:01:42;10.75;;;7.90;;
11524;SDS011;5819;49.648;8.330;2023-12-14T10:04:12;11.93;;;8.57;;
11524;SDS011;5819;49.648;8.330;2023-12-14T10:06:41;10.25;;;8.30;;
11524;SDS011;5819;49.648;8.330;2023-12-14T10:09:11;10.80;;;8.27;;
11524;SDS011;5819;49.648;8.330;2023-12-14T10:11:42;12.13;;;8.18;;
11524;SDS011;5819;49.648;8.330;2023-12-14T10:14:19;12.27;;;9.18;;
11524;SDS011;5819;49.648;8.330;2023-12-14T10:16:50;12.38;;;8.68;;
11524;SDS011;5819;49.648;8.330;2023-12-14T10:19:28;11.32;;;8.63;;
11524;SDS011;5819;49.648;8.330;2023-12-14T10:21:56;11.15;;;8.57;;
11524;SDS011;5819;49.648;8.330;2023-12-14T10:24:25;12.18;;;8.90;;
11524;SDS011;5819;49.648;8.330;2023-12-14T10:26:53;12.80;;;9.48;;
11524;SDS011;5819;49.648;8.330;2023-12-14T10:29:20;11.73;;;9.77;;
11524;SDS011;5819;49.648;8.330;2023-12-14T10:31:50;14.02;;;10.05;;
11524;SDS011;5819;49.648;8.330;2023-12-14T10:34:18;15.75;;;11.02;;
11524;SDS011;5819;49.648;8.330;2023-12-14T10:36:46;13.15;;;9.80;;
11524;SDS011;5819;49.648;8.330;2023-12-14T10:39:14;13.35;;;10.50;;
11524;SDS011;5819;49.648;8.330;2023-12-14T10:41:44;12.73;;;10.10;;
11524;SDS011;5819;49.648;8.330;2023-12-14T10:44:24;13.05;;;9.73;;
11524;SDS011;5819;49.648;8.330;2023-12-14T10:47:15;14.23;;;10.40;;
11524;SDS011;5819;49.648;8.330;2023-12-14T10:49:45;13.32;;;10.70;;
11524;SDS011;5819;49.648;8.330;2023-12-14T10:52:17;13.05;;;10.48;;
11524;SDS011;5819;49.648;8.330;2023-12-14T10:54:49;13.35;;;10.63;;
11524;SDS011;5819;49.648;8.330;2023-12-14T10:57:24;16.95;;;10.93;;
11524;SDS011;5819;49.648;8.330;2023-12-14T10:59:55;14.35;;;9.82;;
11524;SDS011;5819;49.648;8.330;2023-12-14T11:02:26;17.38;;;10.52;;
11524;SDS011;5819;49.648;8.330;2023-12-14T11:04:54;12.68;;;9.50;;
11524;SDS011;5819;49.648;8.330;2023-12-14T11:10:12;13.43;;;9.48;;
11524;SDS011;5819;49.648;8.330;2023-12-14T11:12:49;15.00;;;9.57;;
11524;SDS011;5819;49.648;8.330;2023-12-14T11:15:18;12.25;;;9.88;;
11524;SDS011;5819;49.648;8.330;2023-12-14T11:20:56;13.13;;;9.45;;
11524;SDS011;5819;49.648;8.330;2023-12-14T11:23:28;13.05;;;9.52;;
11524;SDS011;5819;49.648;8.330;2023-12-14T11:26:01;12.48;;;9.23;;
11524;SDS011;5819;49.648;8.330;2023-12-14T11:28:33;9.68;;;8.63;;
11524;SDS011;5819;49.648;8.330;2023-12-14T11:31:04;13.02;;;9.88;;
11524;SDS011;5819;49.648;8.330;2023-12-14T11:33:35;12.95;;;9.73;;
11524;SDS011;5819;49.648;8.330;2023-12-14T11:36:11;16.05;;;10.35;;
11524;SDS011;5819;49.648;8.330;2023-12-14T11:38:41;12.82;;;9.60;;
11524;SDS011;5819;49.648;8.330;2023-12-14T11:41:11;12.30;;;9.90;;
11524;SDS011;5819;49.648;8.330;2023-12-14T11:43:40;11.80;;;9.93;;
11524;SDS011;5819;49.648;8.330;2023-12-14T11:46:09;15.40;;;10.18;;
11524;SDS011;5819;49.648;8.330;2023-12-14T11:48:40;12.93;;;9.80;;
11524;SDS011;5819;49.648;8.330;2023-12-14T11:51:09;14.93;;;11.27;;
11524;SDS011;5819;49.648;8.330;2023-12-14T11:53:37;14.27;;;10.20;;
11524;SDS011;5819;49.648;8.330;2023-12-14T11:56:06;12.57;;;9.93;;
11524;SDS011;5819;49.648;8.330;2023-12-14T11:58:35;14.27;;;10.88;;
11524;SDS011;5819;49.648;8.330;2023-12-14T12:01:13;13.32;;;10.18;;
11524;SDS011;5819;49.648;8.330;2023-12-14T12:03:44;12.65;;;9.98;;
11524;SDS011;5819;49.648;8.330;2023-12-14T12:06:19;15.68;;;11.23;;
11524;SDS011;5819;49.648;8.330;2023-12-14T12:08:48;14.82;;;11.57;;
11524;SDS011;5819;49.648;8.330;2023-12-14T12:11:16;14.80;;;11.85;;
11524;SDS011;5819;49.648;8.330;2023-12-14T12:13:47;14.43;;;10.85;;
11524;SDS011;5819;49.648;8.330;2023-12-14T12:16:19;14.40;;;11.40;;
11524;SDS011;5819;49.648;8.330;2023-12-14T12:18:49;12.95;;;11.23;;
11524;SDS011;5819;49.648;8.330;2023-12-14T12:21:19;13.32;;;10.32;;
11524;SDS011;5819;49.648;8.330;2023-12-14T12:23:47;14.80;;;11.20;;
11524;SDS011;5819;49.648;8.330;2023-12-14T12:26:15;12.52;;;10.23;;
11524;SDS011;5819;49.648;8.330;2023-12-14T12:28:46;12.55;;;9.93;;
11524;SDS011;5819;49.648;8.330;2023-12-14T12:31:16;13.52;;;10.50;;
11524;SDS011;5819;49.648;8.330;2023-12-14T12:33:44;11.75;;;9.20;;
11524;SDS011;5819;49.648;8.330;2023-12-14T12:36:14;13.23;;;9.85;;
11524;SDS011;5819;49.648;8.330;2023-12-14T12:38:43;12.05;;;10.23;;
11524;SDS011;5819;49.648;8.330;2023-12-14T12:41:11;11.30;;;9.70;;
11524;SDS011;5819;49.648;8.330;2023-12-14T12:43:40;13.07;;;10.30;;
11524;SDS011;5819;49.648;8.330;2023-12-14T12:46:08;14.23;;;10.70;;
11524;SDS011;5819;49.648;8.330;2023-12-14T12:48:35;13.52;;;11.02;;
11524;SDS011;5819;49.648;8.330;2023-12-14T12:51:04;13.40;;;10.75;;
11524;SDS011;5819;49.648;8.330;2023-12-14T12:53:34;15.68;;;9.75;;
11524;SDS011;5819;49.648;8.330;2023-12-14T12:56:04;10.27;;;8.68;;
11524;SDS011;5819;49.648;8.330;2023-12-14T12:58:32;10.75;;;8.40;;
11524;SDS011;5819;49.648;8.330;2023-12-14T13:01:00;9.35;;;7.78;;
11524;SDS011;5819;49.648;8.330;2023-12-14T13:03:28;11.65;;;7.95;;
11524;SDS011;5819;49.648;8.330;2023-12-14T13:05:56;9.27;;;7.63;;
11524;SDS011;5819;49.648;8.330;2023-12-14T13:08:25;9.88;;;8.63;;
11524;SDS011;5819;49.648;8.330;2023-12-14T13:10:55;12.95;;;8.75;;
11524;SDS011;5819;49.648;8.330;2023-12-14T13:13:23;10.90;;;9.13;;
11524;SDS011;5819;49.648;8.330;2023-12-14T13:15:51;10.77;;;8.32;;
11524;SDS011;5819;49.648;8.330;2023-12-14T13:18:19;10.90;;;7.43;;
11524;SDS011;5819;49.648;8.330;2023-12-14T13:20:49;10.38;;;8.20;;
11524;SDS011;5819;49.648;8.330;2023-12-14T13:23:18;10.13;;;8.40;;
11524;SDS011;5819;49.648;8.330;2023-12-14T13:25:46;11.52;;;8.50;;
11524;SDS011;5819;49.648;8.330;2023-12-14T13:28:16;9.63;;;8.15;;
11524;SDS011;5819;49.648;8.330;2023-12-14T13:30:44;10.68;;;8.75;;
11524;SDS011;5819;49.648;8.330;2023-12-14T13:33:12;11.98;;;7.57;;
11524;SDS011;5819;49.648;8.330;2023-12-14T13:35:40;9.73;;;7.30;;
11524;SDS011;5819;49.648;8.330;2023-12-14T13:38:09;7.90;;;6.78;;
11524;SDS011;5819;49.648;8.330;2023-12-14T13:40:38;8.20;;;7.15;;
11524;SDS011;5819;49.648;8.330;2023-12-14T13:43:07;8.95;;;7.03;;
11524;SDS011;5819;49.648;8.330;2023-12-14T13:45:38;9.07;;;6.80;;
11524;SDS011;5819;49.648;8.330;2023-12-14T13:48:10;8.23;;;6.82;;
11524;SDS011;5819;49.648;8.330;2023-12-14T13:50:43;9.27;;;5.90;;
11524;SDS011;5819;49.648;8.330;2023-12-14T13:53:11;6.63;;;5.72;;
11524;SDS011;5819;49.648;8.330;2023-12-14T13:55:41;10.43;;;6.13;;
11524;SDS011;5819;49.648;8.330;2023-12-14T13:58:09;5.95;;;5.32;;
11524;SDS011;5819;49.648;8.330;2023-12-14T14:00:39;5.85;;;4.85;;
11524;SDS011;5819;49.648;8.330;2023-12-14T14:03:07;5.65;;;4.57;;
11524;SDS011;5819;49.648;8.330;2023-12-14T14:05:36;4.85;;;4.10;;
11524;SDS011;5819;49.648;8.330;2023-12-14T14:08:05;5.75;;;4.55;;
11524;SDS011;5819;49.648;8.330;2023-12-14T14:10:42;5.25;;;3.88;;
11524;SDS011;5819;49.648;8.330;2023-12-14T14:13:11;4.07;;;3.65;;
11524;SDS011;5819;49.648;8.330;2023-12-14T14:15:40;4.18;;;3.63;;
11524;SDS011;5819;49.648;8.330;2023-12-14T14:18:08;4.10;;;3.50;;
11524;SDS011;5819;49.648;8.330;2023-12-14T14:20:36;4.53;;;3.67;;
11524;SDS011;5819;49.648;8.330;2023-12-14T14:23:04;4.38;;;3.20;;
11524;SDS011;5819;49.648;8.330;2023-12-14T14:25:34;4.72;;;3.67;;
11524;SDS011;5819;49.648;8.330;2023-12-14T14:28:02;4.13;;;3.70;;
11524;SDS011;5819;49.648;8.330;2023-12-14T14:30:30;4.22;;;3.60;;
11524;SDS011;5819;49.648;8.330;2023-12-14T14:32:59;6.15;;;4.80;;
11524;SDS011;5819;49.648;8.330;2023-12-14T14:35:27;7.78;;;4.72;;
11524;SDS011;5819;49.648;8.330;2023-12-14T14:37:55;8.80;;;5.38;;
11524;SDS011;5819;49.648;8.330;2023-12-14T14:40:23;5.15;;;4.22;;
11524;SDS011;5819;49.648;8.330;2023-12-14T14:42:51;6.95;;;4.47;;
11524;SDS011;5819;49.648;8.330;2023-12-14T14:45:19;5.65;;;5.03;;
11524;SDS011;5819;49.648;8.330;2023-12-14T14:47:47;5.70;;;4.63;;
11524;SDS011;5819;49.648;8.330;2023-12-14T14:50:16;5.95;;;4.07;;
11524;SDS011;5819;49.648;8.330;2023-12-14T14:52:44;4.47;;;3.53;;
11524;SDS011;5819;49.648;8.330;2023-12-14T14:55:12;4.80;;;3.88;;
11524;SDS011;5819;49.648;8.330;2023-12-14T14:57:40;4.68;;;3.85;;
11524;SDS011;5819;49.648;8.330;2023-12-14T15:00:09;3.90;;;3.50;;
11524;SDS011;5819;49.648;8.330;2023-12-14T15:02:38;4.80;;;3.70;;
11524;SDS011;5819;49.648;8.330;2023-12-14T15:05:07;6.10;;;4.00;;
11524;SDS011;5819;49.648;8.330;2023-12-14T15:07:37;3.78;;;3.03;;
11524;SDS011;5819;49.648;8.330;2023-12-14T15:10:06;3.47;;;3.17;;